createdAt,value
2023-05-12T00:01:19.817Z,12.70
2023-05-12T00:03:47.126Z,10.30
2023-05-12T00:06:14.365Z,12.30
2023-05-12T00:08:41.335Z,12.10
2023-05-12T00:11:08.255Z,12.40
2023-05-12T00:13:35.203Z,12.50
2023-05-12T00:16:03.466Z,10.70
2023-05-12T00:18:30.578Z,11.60
2023-05-12T00:20:57.528Z,12.30
2023-05-12T00:23:24.420Z,9.90
2023-05-12T00:25:51.238Z,12.50
2023-05-12T00:28:20.533Z,12.40
2023-05-12T00:30:47.414Z,11.40
2023-05-12T00:33:14.468Z,9.80
2023-05-12T00:35:41.449Z,12.50
2023-05-12T00:38:08.936Z,9.70
2023-05-12T00:40:35.871Z,12.30
2023-05-12T00:43:02.875Z,11.60
2023-05-12T00:45:31.472Z,11.50
2023-05-12T00:47:58.851Z,11.80
2023-05-12T00:50:26.204Z,9.60
2023-05-12T00:52:53.252Z,11.10
2023-05-12T00:55:20.596Z,11.90
2023-05-12T00:57:47.593Z,9.50
2023-05-12T01:00:14.963Z,11.80
2023-05-12T01:02:42.185Z,9.50
2023-05-12T01:05:10.028Z,9.40
2023-05-12T01:07:39.062Z,9.40
2023-05-12T01:10:21.144Z,9.40
2023-05-12T01:12:48.666Z,9.30
2023-05-12T01:15:17.966Z,11.20
2023-05-12T01:17:58.543Z,9.20
2023-05-12T01:20:28.173Z,9.10
2023-05-12T01:22:55.619Z,9.10
2023-05-12T01:25:24.556Z,9.10
2023-05-12T01:27:53.646Z,9.00
2023-05-12T01:30:22.954Z,11.40
2023-05-12T01:32:51.498Z,10.70
2023-05-12T01:35:18.632Z,10.90
2023-05-12T01:37:46.855Z,8.80
2023-05-12T01:40:14.004Z,9.20
2023-05-12T01:42:42.820Z,8.70
2023-05-12T01:45:10.512Z,11.20
2023-05-12T01:47:37.476Z,8.70
2023-05-12T01:50:04.907Z,8.70
2023-05-12T01:52:31.848Z,8.60
2023-05-12T01:54:58.757Z,8.60
2023-05-12T01:57:25.620Z,8.60
2023-05-12T01:59:52.559Z,8.60
2023-05-12T02:02:19.589Z,11.00
2023-05-12T02:04:46.548Z,8.70
2023-05-12T02:07:15.573Z,9.90
2023-05-12T02:09:42.605Z,8.60
2023-05-12T02:12:09.638Z,8.60
2023-05-12T02:14:36.692Z,8.70
2023-05-12T02:17:04.648Z,8.50
2023-05-12T02:19:31.571Z,8.50
2023-05-12T02:21:58.447Z,10.20
2023-05-12T02:24:25.373Z,8.40
2023-05-12T02:26:52.242Z,8.40
2023-05-12T02:29:19.155Z,8.40
2023-05-12T02:31:46.126Z,10.40
2023-05-12T02:34:13.086Z,8.30
2023-05-12T02:36:40.097Z,8.30
2023-05-12T02:39:07.118Z,8.30
2023-05-12T02:41:34.136Z,8.20
2023-05-12T02:44:01.074Z,8.70
2023-05-12T02:46:28.017Z,8.20
2023-05-12T02:48:54.924Z,8.20
2023-05-12T02:51:22.047Z,10.80
2023-05-12T02:53:49.001Z,8.20
2023-05-12T02:56:16.351Z,10.40
2023-05-12T02:58:43.539Z,8.10
2023-05-12T03:01:11.878Z,8.00
2023-05-12T03:03:39.409Z,10.80
2023-05-12T03:06:07.440Z,8.00
2023-05-12T03:08:34.347Z,8.00
2023-05-12T03:11:01.300Z,8.00
2023-05-12T03:13:28.243Z,8.00
2023-05-12T03:15:55.744Z,8.00
2023-05-12T03:18:22.883Z,11.00
2023-05-12T03:20:50.078Z,9.50
2023-05-12T03:23:17.498Z,8.00
2023-05-12T03:25:44.386Z,8.00
2023-05-12T03:28:11.605Z,8.00
2023-05-12T03:30:38.752Z,8.00
2023-05-12T03:33:05.769Z,10.10
2023-05-12T03:35:32.830Z,8.00
2023-05-12T03:37:59.784Z,10.60
2023-05-12T03:40:26.779Z,8.00
2023-05-12T03:42:53.793Z,8.10
2023-05-12T03:45:21.353Z,8.00
2023-05-12T03:47:48.499Z,8.10
2023-05-12T03:50:15.530Z,10.00
2023-05-12T03:52:42.405Z,8.10
2023-05-12T03:55:10.552Z,8.20
2023-05-12T03:57:38.215Z,8.20
2023-05-12T04:00:07.407Z,8.20
2023-05-12T04:02:34.668Z,8.20
2023-05-12T04:05:01.713Z,8.30
2023-05-12T04:07:28.834Z,8.30
2023-05-12T04:09:55.903Z,9.00
2023-05-12T04:12:23.476Z,8.40
2023-05-12T04:14:50.624Z,11.20
2023-05-12T04:17:19.196Z,8.50
2023-05-12T04:19:46.844Z,8.60
2023-05-12T04:22:13.784Z,8.60
2023-05-12T04:24:40.665Z,10.90
2023-05-12T04:27:07.574Z,8.70
2023-05-12T04:29:34.480Z,8.70
2023-05-12T04:32:01.502Z,10.90
2023-05-12T04:34:28.477Z,10.30
2023-05-12T04:36:55.432Z,8.80
2023-05-12T04:39:22.420Z,10.80
2023-05-12T04:41:49.616Z,8.90
2023-05-12T04:44:16.565Z,9.00
2023-05-12T04:46:43.864Z,9.10
2023-05-12T04:49:11.335Z,11.90
2023-05-12T04:51:43.008Z,11.10
2023-05-12T04:54:13.119Z,11.40
2023-05-12T04:56:40.255Z,9.10
2023-05-12T04:59:07.194Z,10.20
2023-05-12T05:01:34.208Z,11.70
2023-05-12T05:04:01.362Z,9.20
2023-05-12T05:06:28.397Z,9.40
2023-05-12T05:08:56.028Z,9.30
2023-05-12T05:11:23.627Z,11.50
2023-05-12T05:13:50.665Z,10.30
2023-05-12T05:16:17.777Z,9.40
2023-05-12T05:18:47.266Z,10.50
2023-05-12T05:21:14.634Z,12.00
2023-05-12T05:23:42.105Z,9.60
2023-05-12T05:26:09.356Z,9.60
2023-05-12T05:28:37.328Z,10.30
2023-05-12T05:31:04.781Z,12.10
2023-05-12T05:33:32.296Z,9.70
2023-05-12T05:36:00.222Z,11.30
2023-05-12T05:38:27.189Z,10.40
2023-05-12T05:40:54.680Z,10.00
2023-05-12T05:43:21.881Z,11.50
2023-05-12T05:45:49.980Z,12.80
2023-05-12T05:48:17.493Z,11.30
2023-05-12T05:50:44.927Z,12.20
2023-05-12T05:53:11.893Z,10.90
2023-05-12T05:55:38.819Z,10.70
2023-05-12T05:58:05.723Z,12.80
2023-05-12T06:00:32.752Z,10.60
2023-05-12T06:02:59.684Z,11.10
2023-05-12T06:05:26.789Z,11.90
2023-05-12T06:07:53.999Z,11.50
2023-05-12T06:10:21.310Z,12.40
2023-05-12T06:12:48.658Z,10.90
2023-05-12T06:15:15.755Z,11.00
2023-05-12T06:17:42.771Z,12.90
2023-05-12T06:20:10.349Z,12.50
2023-05-12T06:22:37.303Z,11.10
2023-05-12T06:25:04.654Z,11.30
2023-05-12T06:27:31.582Z,9.40
2023-05-12T06:29:58.668Z,11.40
2023-05-12T06:32:26.489Z,13.30
2023-05-12T06:34:53.628Z,11.50
2023-05-12T06:37:20.606Z,11.50
2023-05-12T06:39:47.529Z,11.60
2023-05-12T06:42:14.523Z,13.10
2023-05-12T06:44:42.494Z,13.00
2023-05-12T06:47:09.694Z,12.90
2023-05-12T06:49:38.622Z,12.00
2023-05-12T06:52:06.760Z,12.30
2023-05-12T06:54:34.044Z,12.10
2023-05-12T06:57:01.201Z,12.20
2023-05-12T06:59:28.148Z,14.20
2023-05-12T07:01:55.222Z,12.40
2023-05-12T07:04:22.633Z,13.20
2023-05-12T07:06:49.720Z,13.40
2023-05-12T07:09:18.757Z,13.00
2023-05-12T07:11:45.908Z,13.10
2023-05-12T07:14:12.841Z,13.20
2023-05-12T07:16:39.898Z,13.50
2023-05-12T07:19:09.012Z,13.60
2023-05-12T07:21:37.140Z,14.50
2023-05-12T07:24:06.122Z,13.30
2023-05-12T07:26:33.480Z,13.40
2023-05-12T07:29:00.993Z,13.60
2023-05-12T07:31:28.976Z,16.00
2023-05-12T07:33:56.313Z,14.00
2023-05-12T07:36:23.365Z,14.00
2023-05-12T07:38:50.327Z,13.90
2023-05-12T07:41:17.849Z,14.10
2023-05-12T07:43:45.536Z,14.20
2023-05-12T07:46:12.733Z,14.20
2023-05-12T07:48:40.423Z,14.40
2023-05-12T07:51:08.301Z,14.50
2023-05-12T07:53:35.519Z,14.60
2023-05-12T07:56:02.570Z,14.70
2023-05-12T07:58:29.865Z,14.80
2023-05-12T08:00:59.067Z,14.80
2023-05-12T08:03:26.540Z,14.90
2023-05-12T08:05:53.638Z,15.20
2023-05-12T08:08:20.647Z,15.30
2023-05-12T08:10:47.654Z,15.00
2023-05-12T08:13:14.932Z,15.00
2023-05-12T08:15:41.930Z,15.00
2023-05-12T08:18:09.001Z,15.10
2023-05-12T08:20:36.057Z,15.60
2023-05-12T08:23:02.977Z,16.00
2023-05-12T08:25:30.847Z,16.30
2023-05-12T08:27:59.596Z,16.30
2023-05-12T08:30:27.367Z,15.60
2023-05-12T08:32:57.794Z,17.80
2023-05-12T08:35:26.987Z,15.80
2023-05-12T08:37:54.185Z,16.10
2023-05-12T08:40:23.338Z,15.90
2023-05-12T08:43:15.821Z,15.90
2023-05-12T08:45:43.225Z,16.00
2023-05-12T08:48:11.428Z,16.20
2023-05-12T08:50:39.818Z,16.30
2023-05-12T08:53:11.285Z,16.50
2023-05-12T08:55:50.831Z,16.70
2023-05-12T08:58:40.014Z,16.80
2023-05-12T09:01:08.533Z,17.00
2023-05-12T09:03:35.613Z,17.10
2023-05-12T09:06:03.790Z,17.20
2023-05-12T09:08:35.042Z,17.20
2023-05-12T09:11:02.719Z,18.00
2023-05-12T09:14:03.460Z,17.30
2023-05-12T09:16:41.434Z,17.40
2023-05-12T09:19:08.478Z,17.50
2023-05-12T09:21:35.556Z,17.60
2023-05-12T09:24:09.150Z,17.70
2023-05-12T09:26:51.529Z,17.70
2023-05-12T09:29:30.669Z,17.80
2023-05-12T09:32:01.484Z,18.00
2023-05-12T09:34:30.638Z,17.90
2023-05-12T09:36:59.980Z,17.80
2023-05-12T09:39:28.474Z,17.90
2023-05-12T09:41:55.944Z,17.80
2023-05-12T09:44:24.491Z,17.90
2023-05-12T09:46:52.763Z,17.90
2023-05-12T09:49:28.057Z,17.80
2023-05-12T09:51:59.496Z,17.80
2023-05-12T09:54:32.210Z,17.90
2023-05-12T09:57:07.533Z,17.90
2023-05-12T09:59:36.419Z,18.10
2023-05-12T10:02:06.731Z,18.40
2023-05-12T10:04:45.552Z,18.40
2023-05-12T10:07:14.559Z,18.60
2023-05-12T10:09:43.072Z,18.80
2023-05-12T10:12:11.157Z,19.00
2023-05-12T10:14:38.694Z,19.10
2023-05-12T10:17:07.177Z,19.30
2023-05-12T10:19:36.142Z,19.30
2023-05-12T10:22:04.139Z,19.30
2023-05-12T10:24:31.237Z,19.40
2023-05-12T10:26:59.585Z,19.40
2023-05-12T10:29:30.071Z,19.40
2023-05-12T10:31:58.171Z,19.40
2023-05-12T10:34:34.783Z,19.50
2023-05-12T10:37:09.148Z,19.50
2023-05-12T10:39:39.108Z,19.50
2023-05-12T10:42:10.141Z,19.50
2023-05-12T10:44:49.648Z,19.50
2023-05-12T10:47:16.641Z,19.40
2023-05-12T10:49:43.656Z,19.40
2023-05-12T10:52:19.947Z,19.40
2023-05-12T10:54:47.691Z,19.50
2023-05-12T10:57:21.466Z,19.50
2023-05-12T10:59:57.577Z,19.50
2023-05-12T11:02:32.562Z,19.50
2023-05-12T11:05:04.800Z,19.60
2023-05-12T11:07:35.425Z,19.70
2023-05-12T11:10:05.872Z,19.70
2023-05-12T11:12:37.625Z,19.80
2023-05-12T11:15:06.400Z,19.80
2023-05-12T11:17:33.617Z,19.80
2023-05-12T11:20:03.283Z,19.80
2023-05-12T11:22:30.251Z,20.00
2023-05-12T11:24:57.460Z,20.00
2023-05-12T11:27:24.688Z,20.20
2023-05-12T11:30:02.843Z,20.20
2023-05-12T11:32:30.585Z,20.20
2023-05-12T11:35:12.502Z,20.10
2023-05-12T11:37:43.396Z,20.00
2023-05-12T11:40:21.953Z,19.90
2023-05-12T11:42:53.016Z,19.80
2023-05-12T11:45:29.309Z,19.80
2023-05-12T11:48:13.959Z,19.90
2023-05-12T11:50:46.633Z,20.00
2023-05-12T11:53:17.510Z,20.10
2023-05-12T11:56:02.590Z,20.20
2023-05-12T11:58:30.713Z,20.30
2023-05-12T12:01:09.980Z,20.20
2023-05-12T12:03:50.605Z,20.20
2023-05-12T12:06:18.839Z,20.20
2023-05-12T12:09:01.303Z,20.20
2023-05-12T12:11:30.670Z,20.20
2023-05-12T12:13:57.926Z,20.20
2023-05-12T12:16:27.121Z,20.00
2023-05-12T12:18:54.279Z,20.00
2023-05-12T12:21:22.814Z,19.90
2023-05-12T12:23:51.634Z,19.70
2023-05-12T12:26:21.584Z,19.60
2023-05-12T12:28:49.461Z,19.50
2023-05-12T12:31:17.150Z,19.50
2023-05-12T12:33:44.216Z,19.40
2023-05-12T12:36:11.251Z,19.30
2023-05-12T12:38:38.200Z,19.30
2023-05-12T12:41:06.988Z,19.20
2023-05-12T12:43:34.013Z,19.20
2023-05-12T12:46:05.414Z,19.30
2023-05-12T12:48:38.010Z,19.20
2023-05-12T12:51:16.875Z,19.20
2023-05-12T12:53:52.477Z,19.10
2023-05-12T12:56:25.586Z,19.70
2023-05-12T12:59:00.341Z,19.10
2023-05-12T13:01:29.964Z,19.20
2023-05-12T13:03:56.988Z,19.10
2023-05-12T13:06:24.541Z,19.10
2023-05-12T13:08:51.853Z,19.10
2023-05-12T13:11:18.789Z,18.30
2023-05-12T13:13:45.693Z,18.90
2023-05-12T13:16:12.580Z,18.80
2023-05-12T13:18:39.547Z,18.70
2023-05-12T13:21:06.607Z,18.60
2023-05-12T13:23:33.633Z,18.50
2023-05-12T13:26:00.569Z,18.50
2023-05-12T13:28:27.502Z,18.50
2023-05-12T13:30:54.558Z,18.50
2023-05-12T13:33:21.722Z,18.50
2023-05-12T13:35:48.680Z,18.40
2023-05-12T13:38:15.602Z,18.40
2023-05-12T13:40:42.729Z,18.30
2023-05-12T13:43:09.753Z,18.30
2023-05-12T13:45:37.418Z,18.10
2023-05-12T13:48:04.827Z,18.10
2023-05-12T13:50:33.604Z,18.00
2023-05-12T13:53:00.884Z,17.20
2023-05-12T13:55:27.797Z,18.00
2023-05-12T13:57:54.693Z,17.80
2023-05-12T14:00:22.081Z,17.80
2023-05-12T14:02:49.247Z,17.80
2023-05-12T14:05:16.673Z,17.80
2023-05-12T14:07:43.735Z,17.70
2023-05-12T14:10:11.287Z,17.70
2023-05-12T14:12:38.860Z,17.70
2023-05-12T14:15:29.418Z,17.70
2023-05-12T14:17:54.426Z,17.60
2023-05-12T14:20:21.463Z,17.60
2023-05-12T14:22:48.531Z,17.60
2023-05-12T14:25:17.205Z,17.60
2023-05-12T14:27:45.349Z,17.40
2023-05-12T14:30:13.012Z,17.40
2023-05-12T14:32:39.971Z,17.30
2023-05-12T14:35:08.322Z,17.40
2023-05-12T14:37:35.731Z,17.40
2023-05-12T14:40:02.910Z,17.40
2023-05-12T14:42:32.173Z,17.40
2023-05-12T14:44:59.450Z,17.40
2023-05-12T14:47:26.794Z,17.40
2023-05-12T14:49:56.871Z,17.40
2023-05-12T14:52:24.105Z,17.40
2023-05-12T14:54:50.980Z,17.30
2023-05-12T14:57:17.910Z,17.10
2023-05-12T14:59:44.862Z,17.10
2023-05-12T15:02:11.829Z,16.90
2023-05-12T15:04:38.808Z,16.80
2023-05-12T15:07:06.052Z,16.70
2023-05-12T15:09:32.931Z,16.60
2023-05-12T15:11:59.919Z,16.60
2023-05-12T15:14:26.909Z,14.40
2023-05-12T15:16:53.890Z,16.40
2023-05-12T15:19:22.482Z,17.40
2023-05-12T15:21:49.401Z,16.30
2023-05-12T15:24:16.377Z,16.30
2023-05-12T15:26:43.300Z,16.20
2023-05-12T15:29:10.253Z,16.20
2023-05-12T15:31:37.187Z,16.20
2023-05-12T15:34:04.515Z,16.20
2023-05-12T15:36:32.417Z,16.10
2023-05-12T15:38:59.629Z,16.10
2023-05-12T15:41:26.544Z,16.00
2023-05-12T15:43:53.455Z,16.00
2023-05-12T15:46:21.342Z,16.30
2023-05-12T15:48:51.665Z,15.90
2023-05-12T15:51:18.596Z,15.90
2023-05-12T15:53:45.696Z,15.90
2023-05-12T15:56:12.781Z,15.80
2023-05-12T15:58:39.733Z,15.70
2023-05-12T16:01:06.637Z,17.70
2023-05-12T16:03:34.399Z,15.60
2023-05-12T16:06:01.372Z,15.70
2023-05-12T16:08:28.353Z,16.30
2023-05-12T16:10:55.470Z,15.40
2023-05-12T16:13:22.648Z,15.30
2023-05-12T16:15:52.908Z,15.30
2023-05-12T16:18:20.013Z,15.20
2023-05-12T16:20:47.734Z,15.10
2023-05-12T16:23:17.792Z,15.10
2023-05-12T16:25:45.817Z,15.10
2023-05-12T16:28:12.937Z,15.30
2023-05-12T16:30:42.465Z,15.00
2023-05-12T16:33:10.041Z,14.80
2023-05-12T16:35:37.470Z,14.90
2023-05-12T16:38:04.526Z,14.80
2023-05-12T16:40:31.547Z,16.20
2023-05-12T16:42:58.470Z,15.80
2023-05-12T16:45:25.543Z,16.20
2023-05-12T16:47:52.540Z,15.90
2023-05-12T16:50:19.608Z,15.50
2023-05-12T16:52:46.530Z,14.60
2023-05-12T16:55:13.479Z,14.60
2023-05-12T16:57:43.202Z,15.10
2023-05-12T17:00:11.461Z,15.50
2023-05-12T17:02:38.972Z,14.50
2023-05-12T17:05:06.777Z,14.70
2023-05-12T17:07:35.345Z,14.50
2023-05-12T17:10:02.837Z,15.30
2023-05-12T17:12:29.840Z,14.60
2023-05-12T17:15:07.050Z,15.40
2023-05-12T17:17:36.047Z,14.70
2023-05-12T17:20:03.883Z,14.40
2023-05-12T17:22:32.145Z,15.10
2023-05-12T17:24:59.069Z,14.30
2023-05-12T17:27:26.189Z,14.40
2023-05-12T17:29:53.108Z,14.40
2023-05-12T17:32:20.090Z,14.20
2023-05-12T17:34:50.788Z,16.00
2023-05-12T17:37:18.275Z,17.00
2023-05-12T17:39:46.193Z,14.10
2023-05-12T17:42:13.313Z,14.90
2023-05-12T17:44:40.264Z,15.10
2023-05-12T17:47:07.510Z,14.80
2023-05-12T17:49:34.550Z,15.10
2023-05-12T17:52:01.474Z,14.00
2023-05-12T17:54:28.452Z,15.40
2023-05-12T17:56:55.601Z,14.00
2023-05-12T17:59:22.646Z,14.40
2023-05-12T18:01:49.581Z,14.00
2023-05-12T18:04:16.562Z,14.00
2023-05-12T18:06:43.832Z,15.00
2023-05-12T18:09:10.791Z,14.90
2023-05-12T18:11:37.848Z,14.00
2023-05-12T18:14:06.071Z,14.10
2023-05-12T18:16:33.605Z,14.70
2023-05-12T18:19:00.706Z,14.30
2023-05-12T18:21:27.855Z,14.80
2023-05-12T18:23:54.881Z,15.60
2023-05-12T18:26:22.334Z,13.90
2023-05-12T18:28:49.275Z,14.00
2023-05-12T18:31:19.423Z,13.90
2023-05-12T18:33:48.606Z,14.20
2023-05-12T18:36:16.833Z,15.10
2023-05-12T18:38:44.214Z,13.90
2023-05-12T18:41:12.064Z,13.80
2023-05-12T18:43:39.036Z,15.20
2023-05-12T18:46:06.151Z,13.80
2023-05-12T18:48:33.129Z,14.00
2023-05-12T18:51:01.219Z,14.70
2023-05-12T18:53:28.191Z,13.80
2023-05-12T18:55:55.291Z,14.80
2023-05-12T18:58:22.640Z,13.80
2023-05-12T19:00:49.579Z,14.80
2023-05-12T19:03:16.964Z,14.70
2023-05-12T19:05:46.313Z,13.70
2023-05-12T19:08:13.401Z,13.70
2023-05-12T19:10:40.386Z,13.70
2023-05-12T19:13:10.346Z,13.70
2023-05-12T19:15:41.189Z,13.80
2023-05-12T19:18:10.177Z,13.60
2023-05-12T19:20:39.897Z,13.60
2023-05-12T19:23:09.189Z,13.60
2023-05-12T19:25:39.292Z,13.50
2023-05-12T19:28:12.803Z,13.50
2023-05-12T19:30:45.380Z,13.40
2023-05-12T19:33:18.738Z,13.40
2023-05-12T19:35:50.618Z,13.30
2023-05-12T19:38:26.698Z,13.30
2023-05-12T19:40:57.740Z,13.30
2023-05-12T19:43:27.862Z,13.30
2023-05-12T19:45:56.239Z,13.30
2023-05-12T19:48:23.159Z,13.70
2023-05-12T19:50:50.479Z,14.30
2023-05-12T19:53:17.431Z,16.20
2023-05-12T19:55:44.355Z,13.30
2023-05-12T19:58:11.270Z,13.20
2023-05-12T20:00:39.319Z,13.10
2023-05-12T20:03:07.123Z,13.50
2023-05-12T20:05:37.728Z,13.00
2023-05-12T20:08:05.310Z,13.60
2023-05-12T20:10:32.341Z,13.10
2023-05-12T20:12:59.325Z,13.10
2023-05-12T20:15:26.318Z,13.70
2023-05-12T20:17:53.313Z,13.10
2023-05-12T20:20:20.204Z,14.00
2023-05-12T20:22:47.240Z,13.20
2023-05-12T20:25:16.170Z,14.80
2023-05-12T20:27:44.200Z,13.20
2023-05-12T20:30:14.877Z,16.10
2023-05-12T20:32:41.889Z,13.00
2023-05-12T20:35:09.655Z,14.20
2023-05-12T20:37:36.721Z,13.00
2023-05-12T20:40:05.276Z,13.00
2023-05-12T20:42:32.261Z,13.00
2023-05-12T20:44:59.267Z,13.70
2023-05-12T20:47:26.759Z,14.00
2023-05-12T20:49:57.488Z,13.00
2023-05-12T20:52:28.786Z,13.20
2023-05-12T20:54:58.201Z,13.30
2023-05-12T20:57:26.580Z,13.80
2023-05-12T20:59:54.526Z,14.20
2023-05-12T21:02:21.551Z,13.70
2023-05-12T21:04:48.603Z,12.90
2023-05-12T21:07:15.525Z,14.60
2023-05-12T21:09:42.658Z,13.30
2023-05-12T21:12:09.791Z,13.80
2023-05-12T21:14:41.982Z,12.90
2023-05-12T21:17:10.338Z,14.00
2023-05-12T21:19:39.259Z,12.90
2023-05-12T21:22:07.895Z,12.90
2023-05-12T21:24:36.389Z,12.90
2023-05-12T21:27:04.451Z,13.50
2023-05-12T21:29:33.062Z,13.10
2023-05-12T21:32:00.771Z,12.80
2023-05-12T21:34:28.005Z,13.80
2023-05-12T21:36:54.990Z,12.80
2023-05-12T21:39:22.159Z,12.80
2023-05-12T21:41:49.378Z,14.10
2023-05-12T21:44:16.450Z,12.60
2023-05-12T21:46:43.644Z,13.70
2023-05-12T21:49:11.025Z,12.70
2023-05-12T21:51:38.011Z,12.70
2023-05-12T21:54:04.969Z,13.20
2023-05-12T21:56:31.836Z,12.70
2023-05-12T21:58:58.975Z,13.70
2023-05-12T22:01:25.940Z,13.40
2023-05-12T22:03:52.972Z,13.80
2023-05-12T22:06:20.187Z,12.70
2023-05-12T22:08:47.097Z,13.30
2023-05-12T22:11:14.023Z,15.30
2023-05-12T22:13:41.268Z,15.80
2023-05-12T22:16:08.276Z,12.70
2023-05-12T22:18:35.606Z,13.10
2023-05-12T22:21:02.494Z,12.60
2023-05-12T22:23:29.472Z,13.50
2023-05-12T22:25:56.535Z,14.00
2023-05-12T22:28:23.534Z,12.70
2023-05-12T22:30:50.477Z,12.70
2023-05-12T22:33:17.353Z,13.90
2023-05-12T22:35:44.285Z,13.20
2023-05-12T22:38:11.240Z,13.20
2023-05-12T22:40:38.217Z,14.50
2023-05-12T22:43:05.396Z,14.50
2023-05-12T22:45:32.438Z,14.20
2023-05-12T22:47:59.473Z,14.50
2023-05-12T22:50:27.704Z,14.20
2023-05-12T22:52:57.276Z,13.80
2023-05-12T22:55:30.693Z,13.50
2023-05-12T22:57:58.371Z,13.80
2023-05-12T23:00:25.665Z,12.90
2023-05-12T23:02:53.205Z,12.50
2023-05-12T23:05:20.647Z,13.60
2023-05-12T23:07:47.550Z,12.50
2023-05-12T23:10:14.526Z,13.70
2023-05-12T23:12:41.496Z,12.40
2023-05-12T23:15:08.915Z,12.40
2023-05-12T23:17:36.144Z,12.40
2023-05-12T23:20:03.236Z,12.30
2023-05-12T23:22:30.241Z,12.30
2023-05-12T23:24:58.282Z,13.00
2023-05-12T23:27:26.273Z,12.70
2023-05-12T23:29:53.393Z,12.30
2023-05-12T23:32:20.726Z,14.40
2023-05-12T23:34:47.976Z,12.20
2023-05-12T23:37:14.992Z,13.80
2023-05-12T23:39:41.931Z,12.70
2023-05-12T23:42:08.906Z,13.40
2023-05-12T23:44:35.900Z,12.70
2023-05-12T23:47:02.889Z,13.40
2023-05-12T23:49:29.950Z,13.80
2023-05-12T23:51:56.861Z,13.00
2023-05-12T23:54:23.804Z,13.80
2023-05-12T23:56:50.979Z,12.10
2023-05-12T23:59:17.903Z,13.50
